createdAt,value
2017-12-22T00:00:03.870Z,3.9
2017-12-22T00:15:03.219Z,3.9
2017-12-22T00:30:02.820Z,3.9
2017-12-22T00:46:34.306Z,3.9
2017-12-22T01:00:02.727Z,4
2017-12-22T01:15:04.248Z,4
2017-12-22T01:30:15.724Z,4.1
2017-12-22T01:45:02.886Z,4.1
2017-12-22T02:00:02.505Z,4.1
2017-12-22T02:15:02.862Z,4.1
2017-12-22T02:30:02.998Z,4.1
2017-12-22T02:45:03.400Z,4.2
2017-12-22T03:00:02.967Z,4.2
2017-12-22T03:15:03.464Z,4.3
2017-12-22T03:30:03.023Z,4.4
2017-12-22T03:45:03.236Z,4.4
2017-12-22T04:00:02.703Z,4.5
2017-12-22T04:15:03.203Z,4.6
2017-12-22T04:30:08.465Z,4.6
2017-12-22T04:45:21.282Z,4.6
2017-12-22T05:00:27.197Z,4.6
2017-12-22T05:15:02.596Z,4.4
2017-12-22T05:31:17.096Z,4.4
2017-12-22T05:45:02.977Z,4.4
2017-12-22T06:00:02.465Z,4.4
2017-12-22T06:15:02.926Z,4.5
2017-12-22T06:30:02.417Z,4.6
2017-12-22T06:45:03.429Z,4.5
2017-12-22T07:00:02.741Z,4.5
2017-12-22T07:15:02.984Z,4.4
2017-12-22T07:30:02.931Z,4.4
2017-12-22T07:45:02.259Z,4.4
2017-12-22T08:00:05.738Z,4.4
2017-12-22T08:15:03.176Z,4.6
2017-12-22T08:30:05.592Z,4.6
2017-12-22T08:45:02.672Z,4.8
2017-12-22T09:00:03.001Z,4.9
2017-12-22T09:15:02.242Z,5
2017-12-22T09:30:46.710Z,5.1
2017-12-22T09:45:06.688Z,5.2
2017-12-22T10:00:02.482Z,5.2
2017-12-22T10:15:08.106Z,5.4
2017-12-22T10:30:02.531Z,5.4
2017-12-22T10:45:02.796Z,5.6
2017-12-22T11:00:50.354Z,5.8
2017-12-22T11:15:02.898Z,5.9
2017-12-22T11:30:02.298Z,5.9
2017-12-22T12:00:03.060Z,5.9
2017-12-22T12:15:02.430Z,5.9
2017-12-22T12:30:03.475Z,5.9
2017-12-22T12:45:02.778Z,5.9
2017-12-22T13:00:58.873Z,5.9
2017-12-22T13:15:03.158Z,5.9
2017-12-22T13:30:12.903Z,5.9
2017-12-22T13:45:03.842Z,5.9
2017-12-22T14:00:03.319Z,6
2017-12-22T14:15:12.923Z,6
2017-12-22T14:30:02.485Z,5.9
2017-12-22T14:45:03.185Z,5.9
2017-12-22T15:15:02.751Z,5.8
2017-12-22T15:30:04.213Z,5.7
2017-12-22T15:45:03.196Z,5.7
2017-12-22T16:00:12.611Z,5.7
2017-12-22T16:15:06.999Z,5.7
2017-12-22T16:30:02.869Z,5.6
2017-12-22T16:45:04.411Z,5.7
2017-12-22T17:00:16.269Z,5.7
2017-12-22T17:15:02.564Z,5.7
2017-12-22T17:30:04.559Z,5.7
2017-12-22T17:45:02.889Z,5.7
2017-12-22T18:00:04.297Z,5.7
2017-12-22T18:30:03.000Z,5.7
2017-12-22T18:45:02.368Z,5.7
2017-12-22T19:00:02.845Z,5.8
2017-12-22T19:15:03.204Z,5.7
2017-12-22T19:45:08.310Z,5.8
2017-12-22T20:00:35.195Z,5.8
2017-12-22T20:15:02.531Z,5.8
2017-12-22T20:30:08.817Z,5.7
2017-12-22T21:00:04.175Z,5.7
2017-12-22T21:15:13.236Z,5.6
2017-12-22T21:30:02.567Z,5.7
2017-12-22T21:45:06.103Z,5.6
2017-12-22T22:00:02.988Z,5.6
2017-12-22T22:15:02.343Z,5.4
2017-12-22T22:30:03.014Z,5.4
2017-12-22T22:45:02.650Z,5.3
2017-12-22T23:00:33.239Z,5.2
2017-12-22T23:15:03.806Z,5.2
2017-12-22T23:30:14.561Z,5.1
2017-12-22T23:45:03.545Z,5
